Time;durP1;ratioP1;P1;durP2;ratioP2;P2;SDS_P1;SDS_P2;PMS_P1;PMS_P2;Temp;Humidity;BMP_temperature;BMP_pressure;BME280_temperature;BME280_humidity;BME280_pressure;Samples;Min_cycle;Max_cycle;Signal;HPM_P1;HPM_P2
2023/10/20 00:00:51;;;;;;;;;1.00;0.75;;;;;17.72;85.22;97680.22;5037081;28;45271;-42
2023/10/20 00:03:17;;;;;;;;;0.75;0.75;;;;;17.69;85.33;97678.06;5037466;28;45393;-42
2023/10/20 00:05:42;;;;;;;;;1.00;1.00;;;;;17.67;85.47;97670.28;5037021;28;46206;-42
2023/10/20 00:08:08;;;;;;;;;0.75;0.00;;;;;17.68;85.33;97679.97;5036965;28;45297;-43
2023/10/20 00:10:35;;;;;;;;;0.00;0.00;;;;;17.67;85.34;97658.72;5019277;28;45554;-42
2023/10/20 00:13:01;;;;;;;;;1.00;1.00;;;;;17.67;86.11;97658.72;5036379;28;45611;-41
2023/10/20 00:15:28;;;;;;;;;0.00;0.00;;;;;17.65;84.61;97658.19;5036711;28;45356;-41
2023/10/20 00:17:53;;;;;;;;;0.00;0.00;;;;;17.64;85.53;97638.56;5035961;28;45356;-41
2023/10/20 00:20:18;;;;;;;;;1.00;0.00;;;;;17.60;85.63;97632.09;5037062;28;45308;-42
2023/10/20 00:22:44;;;;;;;;;0.00;0.00;;;;;17.62;85.54;97631.84;5037064;28;45320;-42
2023/10/20 00:25:11;;;;;;;;;0.00;0.00;;;;;17.62;85.61;97619.22;5036638;28;45332;-43
2023/10/20 00:27:37;;;;;;;;;0.00;0.00;;;;;17.63;85.99;97614.66;5035882;28;45345;-40
2023/10/20 00:30:03;;;;;;;;;1.00;1.00;;;;;17.64;85.33;97611.69;5037016;28;45289;-42
2023/10/20 00:32:30;;;;;;;;;0.25;0.25;;;;;17.58;84.65;97615.44;5036735;28;45365;-41
2023/10/20 00:34:56;;;;;;;;;1.00;0.00;;;;;17.54;85.22;97619.75;5036459;28;47059;-41
2023/10/20 00:37:21;;;;;;;;;0.00;0.00;;;;;17.54;85.68;97627.81;5036446;28;45415;-42
2023/10/20 00:39:47;;;;;;;;;2.00;0.00;;;;;17.56;85.81;97624.84;5036901;28;45495;-40
2023/10/20 00:42:12;;;;;;;;;2.00;0.00;;;;;17.55;85.89;97617.88;5036873;28;45406;-41
2023/10/20 00:44:38;;;;;;;;;5.00;4.00;;;;;17.50;86.31;97610.59;5036245;28;46285;-42
2023/10/20 00:47:04;;;;;;;;;1.00;1.00;;;;;17.53;86.53;97611.94;5036177;28;45411;-43
2023/10/20 00:49:29;;;;;;;;;1.75;1.50;;;;;17.50;85.78;97615.97;5036340;28;45447;-41
2023/10/20 00:51:55;;;;;;;;;0.25;0.00;;;;;17.48;86.20;97620.81;5036562;28;45475;-41
2023/10/20 00:54:22;;;;;;;;;0.00;0.00;;;;;17.45;86.61;97629.41;5036229;28;47103;-41
2023/10/20 00:56:47;;;;;;;;;0.00;0.00;;;;;17.44;86.65;97625.09;5036258;28;45378;-40
2023/10/20 00:59:13;;;;;;;;;1.00;1.00;;;;;17.44;87.21;97617.88;5035994;28;45416;-40
2023/10/20 01:01:38;;;;;;;;;0.00;0.00;;;;;17.43;87.02;97618.13;5036524;28;45315;-41
2023/10/20 01:04:04;;;;;;;;;0.00;0.00;;;;;17.45;87.19;97614.09;5035903;28;45516;-44
2023/10/20 01:06:30;;;;;;;;;1.00;1.00;;;;;17.46;86.80;97606.84;5035204;28;45384;-42
2023/10/20 01:08:58;;;;;;;;;0.00;0.00;;;;;17.46;86.72;97604.97;5036016;28;45417;-39
2023/10/20 01:11:24;;;;;;;;;0.00;0.00;;;;;17.45;86.97;97592.59;5035371;28;45389;-41
2023/10/20 01:13:50;;;;;;;;;0.00;0.00;;;;;17.45;87.08;97581.84;5035172;28;46078;-40
2023/10/20 01:16:15;;;;;;;;;0.00;0.00;;;;;17.45;87.08;97571.09;5035177;28;45488;-41
2023/10/20 01:18:41;;;;;;;;;0.00;0.00;;;;;17.44;86.39;97560.59;5018279;28;45385;-41
2023/10/20 01:21:06;;;;;;;;;0.00;0.00;;;;;17.45;86.97;97576.47;5035869;28;45715;-41
2023/10/20 01:23:31;;;;;;;;;1.00;0.00;;;;;17.42;85.61;97584.25;5035830;28;45280;-42
2023/10/20 01:25:57;;;;;;;;;1.00;0.00;;;;;17.39;86.20;97585.59;5017931;28;45288;-42
2023/10/20 01:28:23;;;;;;;;;0.00;0.00;;;;;17.37;84.88;97592.31;5035939;28;45716;-41
2023/10/20 01:30:48;;;;;;;;;0.50;0.00;;;;;17.33;84.81;97578.63;5036241;28;45457;-43
2023/10/20 01:33:14;;;;;;;;;3.00;0.00;;;;;17.29;83.58;97576.75;5035613;28;46307;-44
2023/10/20 01:35:39;;;;;;;;;0.00;0.00;;;;;17.23;82.79;97565.16;5034611;28;45305;-43
2023/10/20 01:38:05;;;;;;;;;0.00;0.00;;;;;17.20;82.57;97558.47;5035917;28;45385;-41
2023/10/20 01:40:30;;;;;;;;;0.00;0.00;;;;;17.14;82.58;97543.41;5035813;28;45474;-43
2023/10/20 01:42:56;;;;;;;;;0.00;0.00;;;;;17.07;82.91;97523.28;5035604;28;45843;-42
2023/10/20 01:45:21;;;;;;;;;0.00;0.00;;;;;17.14;82.40;97538.03;5035456;28;45329;-43
2023/10/20 01:47:47;;;;;;;;;0.00;0.00;;;;;17.14;81.44;97531.84;5035694;28;45392;-41
2023/10/20 01:50:12;;;;;;;;;0.00;0.00;;;;;17.13;82.89;97519.50;5038732;28;45927;-41
2023/10/20 01:52:38;;;;;;;;;1.00;0.00;;;;;17.13;83.67;97503.38;5039025;28;45808;-41
2023/10/20 01:55:04;;;;;;;;;0.00;0.00;;;;;17.13;83.49;97504.19;5037840;28;45427;-42
2023/10/20 01:57:29;;;;;;;;;0.00;0.00;;;;;17.13;83.63;97500.69;5038908;28;45446;-41
2023/10/20 01:59:54;;;;;;;;;0.00;0.00;;;;;17.08;83.65;97501.50;5038991;28;45511;-40
2023/10/20 02:02:20;;;;;;;;;0.00;0.00;;;;;17.11;82.07;97503.66;5038898;28;46119;-38
2023/10/20 02:04:46;;;;;;;;;0.75;0.00;;;;;17.09;81.69;97500.44;5038448;28;45444;-39
2023/10/20 02:07:12;;;;;;;;;0.00;0.00;;;;;17.07;82.12;97488.38;5038875;28;45379;-42
2023/10/20 02:09:37;;;;;;;;;0.00;0.00;;;;;17.08;83.31;97485.41;5038936;28;45466;-42
2023/10/20 02:12:03;;;;;;;;;0.00;0.00;;;;;17.05;83.43;97485.13;5038590;28;46010;-41
2023/10/20 02:14:30;;;;;;;;;1.00;0.00;;;;;17.05;84.07;97485.91;5038529;28;45450;-41
2023/10/20 02:16:56;;;;;;;;;0.00;0.00;;;;;17.02;83.09;97481.09;5038715;28;45584;-41
2023/10/20 02:19:22;;;;;;;;;0.00;0.00;;;;;17.06;82.15;97484.84;5038509;28;45494;-40
2023/10/20 02:21:47;;;;;;;;;0.00;0.00;;;;;17.08;82.78;97469.28;5038591;28;46110;-41
2023/10/20 02:24:13;;;;;;;;;0.00;0.00;;;;;17.05;83.41;97434.91;5038509;28;45419;-41
2023/10/20 02:26:38;;;;;;;;;0.00;0.00;;;;;17.03;83.65;97423.63;5038262;28;45439;-41
2023/10/20 02:29:04;;;;;;;;;0.00;0.00;;;;;16.98;83.57;97426.34;5038728;28;45309;-40
2023/10/20 02:31:29;;;;;;;;;0.00;0.00;;;;;16.95;83.64;97418.81;5038426;28;46211;-42
2023/10/20 02:33:54;;;;;;;;;0.00;0.00;;;;;16.91;82.50;97425.78;5038382;28;45548;-42
2023/10/20 02:36:21;;;;;;;;;1.00;0.00;;;;;16.91;82.39;97425.78;5038498;28;45747;-41
2023/10/20 02:38:51;;;;;;;;;0.50;0.00;;;;;16.89;82.33;97433.28;5038537;28;45465;-41
2023/10/20 02:41:17;;;;;;;;;0.50;0.00;;;;;16.88;82.37;97434.38;5037792;28;46197;-42
2023/10/20 02:43:42;;;;;;;;;0.00;0.00;;;;;16.84;82.33;97436.78;5037314;28;45320;-42
2023/10/20 02:46:09;;;;;;;;;0.00;0.00;;;;;16.77;82.68;97435.44;5038260;28;45286;-41
2023/10/20 02:48:34;;;;;;;;;0.00;0.00;;;;;16.76;83.35;97429.25;5038295;28;45406;-43
2023/10/20 02:51:14;;;;;;;;;0.00;0.00;;;;;16.77;82.67;97440.78;5037863;28;46995;-43
2023/10/20 02:53:40;;;;;;;;;1.00;1.00;;;;;16.66;83.13;97430.03;5037933;28;45269;-41
2023/10/20 02:56:13;;;;;;;;;0.00;0.00;;;;;16.74;82.97;97435.97;5038037;28;45462;-42
2023/10/20 02:58:39;;;;;;;;;0.00;0.00;;;;;16.74;83.10;97431.41;5038204;28;45360;-42
2023/10/20 03:01:09;;;;;;;;;0.00;0.00;;;;;16.76;83.86;97431.94;5036004;28;46592;-41
2023/10/20 03:03:35;;;;;;;;;0.00;0.00;;;;;16.69;83.24;97423.34;5019932;28;45432;-42
2023/10/20 03:06:02;;;;;;;;;0.75;0.75;;;;;16.76;83.66;97431.94;5037097;28;45340;-41
2023/10/20 03:08:29;;;;;;;;;1.00;0.00;;;;;16.76;83.47;97425.78;5038184;28;45304;-42
2023/10/20 03:10:55;;;;;;;;;0.00;0.00;;;;;16.75;83.93;97422.28;5037412;28;45444;-41
2023/10/20 03:13:22;;;;;;;;;0.00;0.00;;;;;16.79;84.53;97411.81;5037570;28;45339;-41
2023/10/20 03:15:47;;;;;;;;;1.00;1.00;;;;;16.78;84.10;97404.84;5037178;28;45407;-41
2023/10/20 03:18:14;;;;;;;;;0.50;0.00;;;;;16.72;84.43;97401.31;5037900;28;45513;-41
2023/10/20 03:20:39;;;;;;;;;0.75;0.75;;;;;16.72;84.43;97398.63;5036762;28;45391;-40
2023/10/20 03:23:05;;;;;;;;;0.00;0.00;;;;;16.69;83.52;97393.81;5036784;28;45329;-40
2023/10/20 03:25:33;;;;;;;;;0.75;0.75;;;;;16.67;84.31;97390.56;5037349;28;45738;-39
2023/10/20 03:27:59;;;;;;;;;0.00;0.00;;;;;16.64;84.62;97380.38;5037664;28;45396;-40
2023/10/20 03:30:24;;;;;;;;;0.00;0.00;;;;;16.71;84.18;97370.97;5037146;28;46398;-38
2023/10/20 03:32:50;;;;;;;;;1.00;0.00;;;;;16.71;84.54;97362.94;5037448;28;45392;-41
2023/10/20 03:35:16;;;;;;;;;0.25;0.25;;;;;16.66;83.73;97362.94;5037299;28;45262;-41
2023/10/20 03:37:41;;;;;;;;;0.00;0.00;;;;;16.65;83.49;97361.34;5036365;28;45374;-42
2023/10/20 03:40:13;;;;;;;;;0.00;0.00;;;;;16.60;83.98;97365.88;5037445;28;45483;-41
2023/10/20 03:42:45;;;;;;;;;0.00;0.00;;;;;16.48;84.11;97352.75;5036225;28;45320;-42
2023/10/20 03:45:10;;;;;;;;;0.00;0.00;;;;;16.45;84.89;97359.44;5037315;28;45411;-40
2023/10/20 03:47:39;;;;;;;;;2.00;0.00;;;;;16.39;84.81;97343.59;5037376;28;45360;-42
2023/10/20 03:50:16;;;;;;;;;1.50;1.00;;;;;16.50;84.65;97366.69;5037147;28;45415;-41
2023/10/20 03:52:50;;;;;;;;;2.00;0.25;;;;;16.50;84.15;97381.97;5036417;28;45442;-42
2023/10/20 03:55:16;;;;;;;;;0.00;0.00;;;;;16.46;84.26;97376.34;5037487;28;45333;-42
2023/10/20 03:57:42;;;;;;;;;1.00;0.00;;;;;16.49;83.55;97386.53;5037245;28;45406;-40
2023/10/20 04:00:17;;;;;;;;;2.00;1.00;;;;;16.50;84.05;97392.72;5036446;28;45384;-42
2023/10/20 04:02:46;;;;;;;;;2.00;2.00;;;;;16.45;84.93;97407.72;5036795;28;45436;-42
2023/10/20 04:05:13;;;;;;;;;2.33;2.00;;;;;16.43;84.69;97417.09;5036785;28;45394;-42
2023/10/20 04:07:38;;;;;;;;;2.67;2.67;;;;;16.42;85.75;97423.53;5037303;28;45456;-40
2023/10/20 04:10:06;;;;;;;;;4.67;3.00;;;;;16.40;85.57;97425.72;5036575;28;46066;-40
2023/10/20 04:12:31;;;;;;;;;3.00;1.00;;;;;16.41;86.05;97428.13;5036293;28;45433;-40
2023/10/20 04:14:57;;;;;;;;;2.00;2.00;;;;;16.38;86.41;97417.91;5036896;28;45379;-41
2023/10/20 04:17:23;;;;;;;;;3.00;3.00;;;;;16.39;86.67;97418.69;5035748;28;45572;-40
2023/10/20 04:19:49;;;;;;;;;1.67;1.67;;;;;16.38;85.34;97423.25;5036665;28;46279;-41
2023/10/20 04:22:16;;;;;;;;;3.67;3.00;;;;;16.36;85.58;97430.00;5036469;28;45391;-41
2023/10/20 04:24:41;;;;;;;;;0.50;0.50;;;;;16.30;85.75;97415.72;5036745;28;45413;-42
2023/10/20 04:27:20;;;;;;;;;2.00;1.00;;;;;16.37;85.88;97431.59;5018686;28;45551;-42
2023/10/20 04:43:42;;;;;;;;;1.00;1.00;;;;;16.34;84.19;97466.97;5036173;28;45467;-40
2023/10/20 04:47:06;;;;;;;;;0.00;0.00;;;;;16.35;84.62;97471.28;5036317;28;45406;-39
2023/10/20 04:54:23;;;;;;;;;0.00;0.00;;;;;16.31;84.64;97479.06;5035325;28;45324;-41
2023/10/20 05:02:39;;;;;;;;;1.00;1.00;;;;;16.29;85.23;97502.66;4935527;28;45376;-40
2023/10/20 05:05:11;;;;;;;;;3.33;2.00;;;;;16.27;85.29;97501.31;4935331;28;45506;-39
2023/10/20 05:07:36;;;;;;;;;1.00;1.00;;;;;16.29;85.27;97510.69;4935732;28;45510;-40
2023/10/20 05:10:04;;;;;;;;;1.00;1.00;;;;;16.29;85.76;97505.31;4935837;28;45381;-40
2023/10/20 05:12:30;;;;;;;;;1.00;1.00;;;;;16.32;85.81;97506.69;4935518;28;46174;-41
2023/10/20 05:14:56;;;;;;;;;3.33;2.00;;;;;16.29;85.89;97502.66;4935251;28;45302;-38
2023/10/20 05:17:21;;;;;;;;;3.00;1.67;;;;;16.33;86.03;97511.78;4935646;28;45502;-40
2023/10/20 05:19:49;;;;;;;;;3.00;3.00;;;;;16.36;85.75;97489.00;4935381;28;45454;-41
2023/10/20 05:22:14;;;;;;;;;3.00;3.00;;;;;16.34;85.87;97491.94;4935427;28;46187;-41
2023/10/20 05:24:41;;;;;;;;;3.33;3.00;;;;;16.34;85.98;97491.94;4936905;28;45418;-40
2023/10/20 05:27:06;;;;;;;;;4.67;3.00;;;;;16.35;86.15;97482.00;4939095;28;45446;-40
2023/10/20 05:29:31;;;;;;;;;2.00;2.00;;;;;16.34;86.01;97483.06;4938621;28;45527;-41
2023/10/20 05:31:58;;;;;;;;;2.00;2.00;;;;;16.29;85.80;97465.09;4938556;28;46301;-41
2023/10/20 05:34:23;;;;;;;;;7.00;4.00;;;;;16.34;86.55;97477.72;5013139;28;45446;-40
2023/10/20 05:36:49;;;;;;;;;4.33;3.00;;;;;16.36;85.89;97479.06;5039243;28;45242;-41
2023/10/20 05:39:15;;;;;;;;;4.67;4.33;;;;;16.34;85.82;97459.75;5039613;28;45383;-40
2023/10/20 05:41:41;;;;;;;;;2.67;2.67;;;;;16.35;85.79;97455.19;5038745;28;50585;-40
2023/10/20 05:44:08;;;;;;;;;2.00;2.00;;;;;16.36;86.18;97446.09;5039055;28;45495;-41
2023/10/20 05:46:37;;;;;;;;;3.00;2.00;;;;;16.36;86.07;97452.25;5038950;28;45387;-39
2023/10/20 05:49:02;;;;;;;;;12.33;12.33;;;;;16.39;86.08;97462.47;5038987;28;45462;-41
2023/10/20 05:51:28;;;;;;;;;3.33;3.00;;;;;16.41;85.87;97472.91;5038886;28;46060;-41
2023/10/20 05:53:53;;;;;;;;;1.00;1.00;;;;;16.42;86.21;97467.28;5038803;28;45417;-41
2023/10/20 05:56:18;;;;;;;;;2.00;2.00;;;;;16.43;85.52;97454.66;5038998;28;45444;-41
2023/10/20 05:58:44;;;;;;;;;3.00;1.67;;;;;16.42;85.84;97458.41;5038409;28;45440;-41
2023/10/20 06:01:09;;;;;;;;;3.00;3.00;;;;;16.41;85.06;97475.59;5038752;28;45893;-39
2023/10/20 06:03:35;;;;;;;;;3.33;2.00;;;;;16.42;85.09;97477.19;5035815;28;45414;-41
2023/10/20 06:06:01;;;;;;;;;1.33;1.33;;;;;16.39;85.72;97478.56;5018829;28;45462;-39
2023/10/20 06:08:28;;;;;;;;;2.67;2.67;;;;;16.36;85.62;97472.91;5018937;28;45407;-39
2023/10/20 06:11:05;;;;;;;;;1.00;1.00;;;;;16.35;84.97;97479.31;5017278;28;45435;-34
2023/10/20 06:13:32;;;;;;;;;1.33;1.33;;;;;16.31;85.14;97480.94;5018534;28;45350;-39
2023/10/20 06:16:04;;;;;;;;;3.00;1.67;;;;;16.27;85.21;97461.88;5018605;28;45443;-41
2023/10/20 06:18:29;;;;;;;;;1.33;1.00;;;;;16.20;85.51;97447.91;5019074;28;45321;-38
2023/10/20 06:20:54;;;;;;;;;1.00;1.00;;;;;16.32;85.36;97475.31;5018547;28;46093;-39
2023/10/20 06:23:20;;;;;;;;;0.75;0.75;;;;;16.30;84.87;97479.31;5018534;28;45503;-37
2023/10/20 06:25:45;;;;;;;;;2.00;2.00;;;;;16.28;85.07;97481.47;5018220;28;45360;-40
2023/10/20 06:28:12;;;;;;;;;1.33;1.33;;;;;16.27;85.54;97477.16;5017830;28;45622;-38
2023/10/20 06:30:43;;;;;;;;;3.00;1.00;;;;;16.24;85.57;97469.66;5018150;28;45453;-39
2023/10/20 06:35:44;;;;;;;;;1.67;0.00;;;;;16.21;86.17;97487.84;5018042;28;45789;-41
2023/10/20 06:40:35;;;;;;;;;1.00;1.00;;;;;16.14;85.66;97465.88;5000171;28;45364;-39
2023/10/20 06:43:00;;;;;;;;;1.50;1.00;;;;;16.17;85.90;97469.88;5017820;28;45753;-40
2023/10/20 06:45:26;;;;;;;;;1.00;1.00;;;;;16.18;85.74;97475.00;5017429;28;45521;-43
2023/10/20 06:47:51;;;;;;;;;1.00;1.00;;;;;16.18;85.32;97464.28;5017889;28;45234;-38
2023/10/20 06:50:16;;;;;;;;;4.67;4.67;;;;;16.18;85.19;97466.13;5018136;28;45539;-39
2023/10/20 06:52:42;;;;;;;;;3.00;2.00;;;;;16.15;85.65;97461.31;5003587;28;45511;-40
2023/10/20 06:55:09;;;;;;;;;4.67;2.00;;;;;16.20;85.63;97475.53;5008195;28;45397;-40
2023/10/20 06:57:34;;;;;;;;;2.33;2.00;;;;;16.21;84.81;97474.44;5012765;28;45505;-44
2023/10/20 07:00:00;;;;;;;;;1.00;1.00;;;;;16.20;84.99;97491.63;5012014;28;46225;-41
2023/10/20 07:02:25;;;;;;;;;2.00;2.00;;;;;16.22;84.98;97488.66;5014470;28;45408;-42
2023/10/20 07:04:50;;;;;;;;;2.75;2.00;;;;;16.21;85.17;97503.94;5015716;28;48472;-37
2023/10/20 07:07:17;;;;;;;;;3.00;2.00;;;;;16.03;84.84;97482.97;5016213;28;45470;-40
2023/10/20 07:09:47;;;;;;;;;3.33;2.00;;;;;16.20;84.43;97502.34;5015807;28;46996;-40
2023/10/20 07:12:14;;;;;;;;;1.00;1.00;;;;;16.24;84.13;97502.63;5010157;28;45455;-40
2023/10/20 07:14:42;;;;;;;;;1.67;1.33;;;;;16.15;84.72;97493.47;5014942;28;45586;-39
2023/10/20 07:17:07;;;;;;;;;2.00;1.00;;;;;16.23;84.47;97502.91;5016313;28;45404;-38
2023/10/20 07:19:33;;;;;;;;;1.00;1.00;;;;;16.23;84.34;97503.72;5016411;28;47081;-41
2023/10/20 07:22:00;;;;;;;;;1.33;1.33;;;;;16.26;84.27;97505.84;5016317;28;45479;-40
2023/10/20 07:24:26;;;;;;;;;1.00;1.00;;;;;16.28;83.85;97503.72;5015914;28;45312;-41
2023/10/20 07:26:52;;;;;;;;;1.00;1.00;;;;;16.24;83.73;97507.19;5017034;28;45470;-40
2023/10/20 07:29:18;;;;;;;;;2.00;1.00;;;;;16.28;84.22;97508.28;5015600;28;45407;-41
2023/10/20 07:31:45;;;;;;;;;2.00;2.00;;;;;16.27;83.94;97499.44;5015917;28;45940;-41
2023/10/20 07:34:11;;;;;;;;;3.00;1.67;;;;;16.30;83.81;97504.25;5016143;28;45451;-42
2023/10/20 07:36:36;;;;;;;;;4.00;2.00;;;;;16.35;83.20;97514.19;5015915;28;45402;-41
2023/10/20 07:39:03;;;;;;;;;1.00;1.00;;;;;16.36;83.98;97505.09;5015405;28;45626;-39
2023/10/20 07:41:28;;;;;;;;;2.67;2.67;;;;;16.38;83.50;97508.31;5014947;28;45490;-40
2023/10/20 07:43:53;;;;;;;;;2.00;2.00;;;;;16.37;83.21;97512.88;5015650;28;45305;-40
2023/10/20 07:46:19;;;;;;;;;3.33;2.00;;;;;16.39;82.95;97534.06;5015853;28;45219;-40
2023/10/20 07:48:45;;;;;;;;;4.33;1.67;;;;;16.41;83.12;97545.34;5015094;28;46323;-39
2023/10/20 07:51:11;;;;;;;;;1.00;1.00;;;;;16.42;83.08;97533.53;5015489;28;46458;-40
2023/10/20 07:53:37;;;;;;;;;2.33;1.33;;;;;16.41;82.43;97535.41;5015863;28;45428;-41
2023/10/20 07:56:02;;;;;;;;;2.00;2.00;;;;;16.48;82.65;97542.44;5015304;28;45440;-39
2023/10/20 07:58:28;;;;;;;;;2.00;2.00;;;;;16.53;82.77;97542.44;5015201;28;46825;-40
2023/10/20 08:00:54;;;;;;;;;2.00;2.00;;;;;16.51;82.10;97547.25;5015085;28;45538;-40
2023/10/20 08:03:19;;;;;;;;;2.00;2.00;;;;;16.52;82.03;97555.06;5015779;28;45508;-42
2023/10/20 08:05:44;;;;;;;;;3.33;2.33;;;;;16.56;81.97;97545.41;5035386;28;45426;-40
2023/10/20 08:08:10;;;;;;;;;1.75;1.75;;;;;16.59;81.25;97541.38;5035268;28;46965;-41
2023/10/20 08:10:37;;;;;;;;;3.50;2.00;;;;;16.53;80.71;97537.06;5034978;28;45478;-40
2023/10/20 08:13:03;;;;;;;;;5.75;1.75;;;;;16.59;80.34;97546.75;5015387;28;45343;-42
2023/10/20 08:15:29;;;;;;;;;2.00;2.00;;;;;16.58;80.47;97556.69;5035240;28;45431;-41
2023/10/20 08:17:55;;;;;;;;;3.00;2.00;;;;;16.58;80.47;97559.34;5034948;28;46204;-41
2023/10/20 08:20:20;;;;;;;;;2.00;2.00;;;;;16.57;80.15;97552.38;5035036;28;46319;-39
2023/10/20 08:22:46;;;;;;;;;5.00;4.00;;;;;16.63;80.34;97554.00;5017281;28;45492;-40
2023/10/20 08:25:12;;;;;;;;;4.00;2.00;;;;;16.68;80.26;97574.69;5035460;28;45634;-39
2023/10/20 08:27:37;;;;;;;;;2.67;2.67;;;;;16.65;80.07;97570.66;5034853;28;45956;-41
2023/10/20 08:30:04;;;;;;;;;4.00;2.33;;;;;16.64;79.66;97571.75;5035002;28;45483;-42
2023/10/20 08:32:30;;;;;;;;;4.00;4.00;;;;;16.63;79.76;97561.25;5035070;28;45893;-38
2023/10/20 08:34:55;;;;;;;;;2.00;2.00;;;;;16.59;79.56;97571.69;5035167;28;45455;-42
2023/10/20 08:37:20;;;;;;;;;2.33;2.33;;;;;16.55;79.84;97565.25;5035199;28;52601;-41
2023/10/20 08:39:46;;;;;;;;;1.00;1.00;;;;;16.39;79.14;97537.56;5034338;28;45482;-42
2023/10/20 08:42:19;;;;;;;;;3.75;2.00;;;;;16.58;79.63;97567.41;5034981;28;45517;-40
2023/10/20 08:44:45;;;;;;;;;2.00;2.00;;;;;16.66;79.01;97569.59;5034753;28;45591;-41
2023/10/20 08:47:12;;;;;;;;;4.00;2.00;;;;;16.73;78.99;97569.38;5034418;28;47508;-40
2023/10/20 08:49:39;;;;;;;;;2.75;2.00;;;;;16.83;78.48;97564.03;5034486;28;45462;-41
2023/10/20 08:52:08;;;;;;;;;2.75;2.75;;;;;16.90;78.32;97579.91;5034826;28;45293;-39
2023/10/20 08:54:33;;;;;;;;;3.00;1.67;;;;;16.94;77.72;97567.56;5033324;28;45864;-40
2023/10/20 08:56:59;;;;;;;;;2.00;2.00;;;;;17.02;77.54;97572.38;5034863;28;46149;-40
2023/10/20 08:59:24;;;;;;;;;2.00;2.00;;;;;17.15;76.89;97568.38;5034043;28;45893;-41
2023/10/20 09:01:51;;;;;;;;;2.33;2.33;;;;;17.48;76.57;97572.44;5034644;28;45564;-41
2023/10/20 09:04:24;;;;;;;;;2.33;2.33;;;;;17.68;75.06;97571.63;5025872;28;45585;-38
2023/10/20 09:06:50;;;;;;;;;2.75;2.75;;;;;17.73;74.66;97571.63;5013690;28;46405;-41
2023/10/20 09:09:16;;;;;;;;;4.00;3.00;;;;;17.84;74.41;97583.22;5014730;28;45301;-40
2023/10/20 09:11:42;;;;;;;;;2.00;2.00;;;;;17.83;73.73;97560.09;5014612;28;45561;-39
2023/10/20 09:14:07;;;;;;;;;4.00;3.75;;;;;18.07;73.16;97576.44;5014385;28;45444;-44
2023/10/20 09:16:36;;;;;;;;;2.75;2.00;;;;;18.12;73.02;97581.84;5014158;28;47044;-38
2023/10/20 09:19:03;;;;;;;;;3.25;3.25;;;;;17.99;72.81;97572.41;5014465;28;45368;-40
2023/10/20 09:21:29;;;;;;;;;4.00;3.00;;;;;17.89;73.47;97593.94;5014672;28;45428;-38
2023/10/20 09:24:06;;;;;;;;;2.50;2.00;;;;;17.76;73.66;97591.81;5014914;28;45518;-40
2023/10/20 09:26:40;;;;;;;;;4.75;3.50;;;;;17.71;73.70;97590.72;5011625;28;47100;-38
2023/10/20 09:29:07;;;;;;;;;4.00;3.25;;;;;17.66;73.83;97582.66;5013672;28;47712;-41
2023/10/20 09:31:34;;;;;;;;;2.75;2.75;;;;;17.64;73.76;97597.44;5014447;28;45428;-39
2023/10/20 09:33:59;;;;;;;;;2.50;2.00;;;;;17.57;73.53;97597.72;5014199;28;45431;-39
2023/10/20 09:36:28;;;;;;;;;2.00;2.00;;;;;17.52;73.70;97596.91;5014002;28;45432;-40
2023/10/20 09:38:55;;;;;;;;;1.00;1.00;;;;;17.48;73.84;97603.88;4997347;28;45445;-39
2023/10/20 09:41:23;;;;;;;;;4.00;1.25;;;;;17.47;73.84;97597.69;5013331;28;45440;-41
2023/10/20 09:43:49;;;;;;;;;4.00;3.50;;;;;17.68;73.56;97604.69;5014621;28;45524;-40
2023/10/20 09:46:33;;;;;;;;;1.00;1.00;;;;;18.02;73.01;97600.66;5014100;28;47232;-41
2023/10/20 09:49:00;;;;;;;;;1.00;1.00;;;;;18.21;71.72;97604.41;5013818;28;45652;-40
2023/10/20 09:51:26;;;;;;;;;6.00;3.00;;;;;18.35;71.60;97593.84;5014105;28;45301;-40
2023/10/20 09:53:53;;;;;;;;;3.00;3.00;;;;;18.56;70.41;97611.56;5014719;28;45379;-40
2023/10/20 09:56:20;;;;;;;;;3.50;3.50;;;;;18.73;70.27;97615.84;5013198;28;45612;-38
2023/10/20 09:58:46;;;;;;;;;4.00;3.00;;;;;18.78;69.97;97619.28;5014079;28;45487;-40
2023/10/20 10:01:15;;;;;;;;;5.50;5.50;;;;;18.69;69.59;97616.38;5013139;28;45479;-39
2023/10/20 10:03:41;;;;;;;;;3.25;3.25;;;;;18.53;69.72;97617.47;5017081;28;45525;-40
2023/10/20 10:06:13;;;;;;;;;4.25;4.00;;;;;18.40;70.61;97631.50;5032605;28;45462;-40
2023/10/20 10:08:43;;;;;;;;;9.25;4.75;;;;;18.28;71.51;97631.81;5015484;28;45521;-42
2023/10/20 10:11:27;;;;;;;;;5.25;2.25;;;;;18.24;71.34;97621.88;5035678;28;45549;-40
2023/10/20 10:14:01;;;;;;;;;4.00;2.75;;;;;18.41;71.12;97620.50;5037113;28;45764;-40
2023/10/20 10:16:27;;;;;;;;;3.00;3.00;;;;;18.39;70.95;97629.91;5037119;28;45534;-40
2023/10/20 10:18:55;;;;;;;;;3.50;3.50;;;;;18.23;71.09;97629.13;5036175;28;45510;-41
2023/10/20 10:21:25;;;;;;;;;3.00;3.00;;;;;18.12;71.52;97632.94;5036598;28;46309;-40
2023/10/20 10:24:12;;;;;;;;;4.00;2.50;;;;;18.05;72.34;97635.91;5036789;28;45391;-38
2023/10/20 10:27:07;;;;;;;;;5.75;3.25;;;;;18.00;72.67;97635.09;5036341;28;45682;-40
2023/10/20 10:30:05;;;;;;;;;4.00;3.75;;;;;17.98;73.15;97648.81;4955487;28;45651;-40
2023/10/20 10:32:32;;;;;;;;;8.50;5.50;;;;;18.00;73.52;97645.84;4970068;28;45526;-40
2023/10/20 10:34:58;;;;;;;;;11.67;9.00;;;;;17.99;74.45;97646.91;4975143;28;45775;-40
2023/10/20 10:37:37;;;;;;;;;8.00;6.00;;;;;18.10;73.48;97637.78;4975295;28;47214;-39
2023/10/20 10:40:13;;;;;;;;;8.50;5.00;;;;;18.19;73.76;97639.63;4974457;28;45511;-42
2023/10/20 10:42:41;;;;;;;;;6.00;4.50;;;;;18.30;73.48;97640.44;4974305;28;45454;-41
2023/10/20 10:45:35;;;;;;;;;6.25;5.75;;;;;18.36;73.88;97643.91;4974456;28;45531;-40
2023/10/20 10:48:09;;;;;;;;;11.33;7.00;;;;;18.32;73.67;97642.84;4973346;28;46298;-46
2023/10/20 10:50:39;;;;;;;;;8.25;5.00;;;;;18.19;73.26;97638.81;4974664;28;45492;-40
2023/10/20 10:53:05;;;;;;;;;15.33;12.33;;;;;18.10;74.13;97640.47;4974673;28;45553;-39
2023/10/20 10:55:31;;;;;;;;;6.75;4.50;;;;;18.12;73.66;97639.13;4975049;28;45408;-41
2023/10/20 10:58:00;;;;;;;;;7.00;6.00;;;;;18.08;73.27;97629.19;4974464;28;45910;-38
2023/10/20 11:00:26;;;;;;;;;5.00;2.00;;;;;18.15;73.30;97651.22;4974456;28;45678;-40
2023/10/20 11:02:52;;;;;;;;;8.00;6.25;;;;;18.13;73.13;97645.31;4974926;28;46464;-39
2023/10/20 11:05:19;;;;;;;;;13.00;7.50;;;;;18.14;73.47;97650.41;4983514;28;45377;-41
2023/10/20 11:08:11;;;;;;;;;6.50;6.50;;;;;18.53;72.74;97644.41;5018824;28;47449;-41
2023/10/20 11:10:38;;;;;;;;;9.25;6.25;;;;;18.82;71.25;97644.59;5011758;28;45440;-41
2023/10/20 11:13:10;;;;;;;;;5.25;5.00;;;;;19.24;70.31;97651.41;5016078;28;45388;-38
2023/10/20 11:15:37;;;;;;;;;7.50;5.25;;;;;19.16;70.19;97636.63;5015042;28;45856;-39
2023/10/20 11:18:04;;;;;;;;;13.50;10.00;;;;;19.01;70.40;97625.13;5016018;28;46170;-41
2023/10/20 11:20:33;;;;;;;;;7.25;5.75;;;;;18.99;70.63;97629.97;5015720;28;45337;-41
2023/10/20 11:23:00;;;;;;;;;7.00;7.00;;;;;19.22;70.25;97632.03;5009853;28;45512;-39
2023/10/20 11:25:26;;;;;;;;;9.25;6.25;;;;;19.19;70.00;97635.25;5008138;28;45472;-40
2023/10/20 11:27:55;;;;;;;;;7.25;5.50;;;;;18.99;69.78;97629.97;5008145;28;47196;-39
2023/10/20 11:30:31;;;;;;;;;6.50;5.75;;;;;18.94;70.05;97645.09;5009663;28;45253;-38
2023/10/20 11:32:57;;;;;;;;;7.25;6.00;;;;;19.09;70.21;97629.94;5006693;28;45408;-40
2023/10/20 11:35:26;;;;;;;;;4.50;4.00;;;;;19.84;68.52;97630.50;5011240;28;46368;-41
2023/10/20 11:37:58;;;;;;;;;8.00;5.00;;;;;20.15;67.28;97625.66;5009630;28;46443;-40
2023/10/20 11:40:26;;;;;;;;;4.00;4.00;;;;;19.99;67.00;97621.50;5015003;28;45360;-39
2023/10/20 11:42:51;;;;;;;;;7.00;4.00;;;;;20.44;67.63;97624.81;5015633;28;45474;-40
2023/10/20 11:45:17;;;;;;;;;4.00;3.25;;;;;21.65;62.28;97608.09;4998055;28;45657;-41
2023/10/20 11:47:43;;;;;;;;;6.00;5.00;;;;;21.99;62.79;97612.41;5015631;28;45420;-41
2023/10/20 11:50:18;;;;;;;;;4.00;3.00;;;;;23.60;58.95;97605.91;5015389;28;45269;-39
2023/10/20 11:52:43;;;;;;;;;7.80;5.80;;;;;;;;5015646;28;45474;-40
2023/10/20 11:55:10;;;;;;;;;3.50;3.50;;;;;23.08;58.27;97615.50;4998270;28;45592;-40
2023/10/20 11:57:36;;;;;;;;;3.20;3.00;;;;;23.46;56.94;97607.06;5015286;28;46303;-40
2023/10/20 12:00:07;;;;;;;;;2.00;2.00;;;;;23.88;55.39;97601.16;5015812;28;45846;-40
2023/10/20 12:02:33;;;;;;;;;3.60;1.40;;;;;24.04;55.36;97612.44;5014972;28;45435;-40
2023/10/20 12:05:00;;;;;;;;;4.00;2.50;;;;;24.21;53.72;97605.50;5029356;28;45415;-41